sensor_id;sensor_type;location;lat;lon;timestamp;P1;durP1;ratioP1;P2;durP2;ratioP2
60867;SDS011;46702;48.370;10.794;2022-07-29T00:00:41;5.35;;;2.60;;
60867;SDS011;46702;48.370;10.794;2022-07-29T00:05:35;3.50;;;2.33;;
60867;SDS011;46702;48.370;10.794;2022-07-29T00:08:01;4.15;;;2.33;;
60867;SDS011;46702;48.370;10.794;2022-07-29T00:10:26;4.03;;;2.72;;
60867;SDS011;46702;48.370;10.794;2022-07-29T00:12:52;3.78;;;2.35;;
60867;SDS011;46702;48.370;10.794;2022-07-29T00:15:18;2.80;;;2.40;;
60867;SDS011;46702;48.370;10.794;2022-07-29T00:17:43;4.00;;;2.65;;
60867;SDS011;46702;48.370;10.794;2022-07-29T00:20:09;2.60;;;2.40;;
60867;SDS011;46702;48.370;10.794;2022-07-29T00:22:36;3.72;;;2.47;;
60867;SDS011;46702;48.370;10.794;2022-07-29T00:25:03;3.05;;;2.47;;
60867;SDS011;46702;48.370;10.794;2022-07-29T00:27:29;2.92;;;2.63;;
60867;SDS011;46702;48.370;10.794;2022-07-29T00:29:55;4.63;;;2.65;;
60867;SDS011;46702;48.370;10.794;2022-07-29T00:32:20;3.10;;;2.70;;
60867;SDS011;46702;48.370;10.794;2022-07-29T00:34:46;3.35;;;2.50;;
60867;SDS011;46702;48.370;10.794;2022-07-29T00:37:30;4.40;;;2.55;;
60867;SDS011;46702;48.370;10.794;2022-07-29T00:39:56;2.70;;;2.50;;
60867;SDS011;46702;48.370;10.794;2022-07-29T00:42:22;3.15;;;2.55;;
60867;SDS011;46702;48.370;10.794;2022-07-29T00:44:47;3.72;;;2.67;;
60867;SDS011;46702;48.370;10.794;2022-07-29T00:47:13;3.22;;;2.67;;
60867;SDS011;46702;48.370;10.794;2022-07-29T00:49:39;3.03;;;2.72;;
60867;SDS011;46702;48.370;10.794;2022-07-29T00:52:07;3.58;;;2.75;;
60867;SDS011;46702;48.370;10.794;2022-07-29T00:54:34;2.83;;;2.50;;
60867;SDS011;46702;48.370;10.794;2022-07-29T00:57:00;4.40;;;2.60;;
60867;SDS011;46702;48.370;10.794;2022-07-29T00:59:26;2.85;;;2.63;;
60867;SDS011;46702;48.370;10.794;2022-07-29T01:01:52;3.50;;;3.20;;
60867;SDS011;46702;48.370;10.794;2022-07-29T01:04:19;3.00;;;2.53;;
60867;SDS011;46702;48.370;10.794;2022-07-29T01:06:46;6.00;;;3.13;;
60867;SDS011;46702;48.370;10.794;2022-07-29T01:09:13;6.30;;;2.78;;
60867;SDS011;46702;48.370;10.794;2022-07-29T01:11:40;3.33;;;2.55;;
60867;SDS011;46702;48.370;10.794;2022-07-29T01:14:07;3.13;;;2.60;;
60867;SDS011;46702;48.370;10.794;2022-07-29T01:16:37;6.40;;;3.00;;
60867;SDS011;46702;48.370;10.794;2022-07-29T01:19:31;5.50;;;2.93;;
60867;SDS011;46702;48.370;10.794;2022-07-29T01:22:14;3.20;;;2.90;;
60867;SDS011;46702;48.370;10.794;2022-07-29T01:25:05;3.28;;;2.90;;
60867;SDS011;46702;48.370;10.794;2022-07-29T01:28:00;2.88;;;2.67;;
60867;SDS011;46702;48.370;10.794;2022-07-29T01:30:39;5.35;;;3.00;;
60867;SDS011;46702;48.370;10.794;2022-07-29T01:33:10;4.07;;;3.22;;
60867;SDS011;46702;48.370;10.794;2022-07-29T01:36:00;3.33;;;2.88;;
60867;SDS011;46702;48.370;10.794;2022-07-29T01:38:28;5.10;;;3.10;;
60867;SDS011;46702;48.370;10.794;2022-07-29T01:40:58;2.95;;;2.65;;
60867;SDS011;46702;48.370;10.794;2022-07-29T01:43:40;3.33;;;3.03;;
60867;SDS011;46702;48.370;10.794;2022-07-29T01:46:14;4.93;;;3.03;;
60867;SDS011;46702;48.370;10.794;2022-07-29T01:48:51;3.35;;;3.00;;
60867;SDS011;46702;48.370;10.794;2022-07-29T01:51:28;6.68;;;3.33;;
60867;SDS011;46702;48.370;10.794;2022-07-29T01:54:13;5.68;;;4.00;;
60867;SDS011;46702;48.370;10.794;2022-07-29T01:56:58;4.90;;;3.60;;
60867;SDS011;46702;48.370;10.794;2022-07-29T01:59:25;5.05;;;3.55;;
60867;SDS011;46702;48.370;10.794;2022-07-29T02:01:53;4.07;;;3.63;;
60867;SDS011;46702;48.370;10.794;2022-07-29T02:04:20;4.38;;;3.72;;
60867;SDS011;46702;48.370;10.794;2022-07-29T02:06:47;4.55;;;4.00;;
60867;SDS011;46702;48.370;10.794;2022-07-29T02:09:15;4.18;;;3.40;;
60867;SDS011;46702;48.370;10.794;2022-07-29T02:11:47;4.30;;;3.90;;
60867;SDS011;46702;48.370;10.794;2022-07-29T02:14:15;5.00;;;3.83;;
60867;SDS011;46702;48.370;10.794;2022-07-29T02:16:44;4.88;;;4.15;;
60867;SDS011;46702;48.370;10.794;2022-07-29T02:19:12;4.30;;;3.90;;
60867;SDS011;46702;48.370;10.794;2022-07-29T02:21:39;7.05;;;4.40;;
60867;SDS011;46702;48.370;10.794;2022-07-29T02:26:33;4.10;;;3.65;;
60867;SDS011;46702;48.370;10.794;2022-07-29T02:28:59;5.78;;;4.03;;
60867;SDS011;46702;48.370;10.794;2022-07-29T02:31:28;4.77;;;4.27;;
60867;SDS011;46702;48.370;10.794;2022-07-29T02:33:59;5.40;;;3.88;;
60867;SDS011;46702;48.370;10.794;2022-07-29T02:36:26;4.75;;;3.33;;
60867;SDS011;46702;48.370;10.794;2022-07-29T02:38:55;3.75;;;3.35;;
60867;SDS011;46702;48.370;10.794;2022-07-29T02:44:18;4.43;;;3.30;;
60867;SDS011;46702;48.370;10.794;2022-07-29T02:49:34;3.40;;;2.92;;
60867;SDS011;46702;48.370;10.794;2022-07-29T02:52:09;3.45;;;2.78;;
60867;SDS011;46702;48.370;10.794;2022-07-29T02:54:47;4.30;;;3.55;;
60867;SDS011;46702;48.370;10.794;2022-07-29T02:57:30;3.85;;;3.38;;
60867;SDS011;46702;48.370;10.794;2022-07-29T03:00:02;3.30;;;3.03;;
60867;SDS011;46702;48.370;10.794;2022-07-29T03:02:32;4.05;;;3.65;;
60867;SDS011;46702;48.370;10.794;2022-07-29T03:05:00;5.00;;;3.63;;
60867;SDS011;46702;48.370;10.794;2022-07-29T03:07:28;4.93;;;3.75;;
60867;SDS011;46702;48.370;10.794;2022-07-29T03:09:54;5.40;;;3.55;;
60867;SDS011;46702;48.370;10.794;2022-07-29T03:12:20;5.68;;;4.00;;
60867;SDS011;46702;48.370;10.794;2022-07-29T03:14:47;4.82;;;3.20;;
60867;SDS011;46702;48.370;10.794;2022-07-29T03:17:13;4.75;;;4.22;;
60867;SDS011;46702;48.370;10.794;2022-07-29T03:19:40;5.78;;;3.97;;
60867;SDS011;46702;48.370;10.794;2022-07-29T03:22:06;4.00;;;3.60;;
60867;SDS011;46702;48.370;10.794;2022-07-29T03:24:33;4.50;;;3.58;;
60867;SDS011;46702;48.370;10.794;2022-07-29T03:27:01;4.38;;;3.45;;
60867;SDS011;46702;48.370;10.794;2022-07-29T03:29:27;6.82;;;3.78;;
60867;SDS011;46702;48.370;10.794;2022-07-29T03:31:53;3.97;;;3.38;;
60867;SDS011;46702;48.370;10.794;2022-07-29T03:34:19;5.55;;;3.75;;
60867;SDS011;46702;48.370;10.794;2022-07-29T03:36:46;4.60;;;3.30;;
60867;SDS011;46702;48.370;10.794;2022-07-29T03:39:13;3.90;;;3.50;;
60867;SDS011;46702;48.370;10.794;2022-07-29T03:41:41;5.20;;;3.97;;
60867;SDS011;46702;48.370;10.794;2022-07-29T03:44:09;4.10;;;3.70;;
60867;SDS011;46702;48.370;10.794;2022-07-29T03:46:35;5.32;;;3.17;;
60867;SDS011;46702;48.370;10.794;2022-07-29T03:49:03;4.27;;;2.97;;
60867;SDS011;46702;48.370;10.794;2022-07-29T03:51:29;5.90;;;3.70;;
60867;SDS011;46702;48.370;10.794;2022-07-29T03:53:56;4.15;;;3.40;;
60867;SDS011;46702;48.370;10.794;2022-07-29T03:56:22;3.42;;;3.13;;
60867;SDS011;46702;48.370;10.794;2022-07-29T03:58:51;4.70;;;3.20;;
60867;SDS011;46702;48.370;10.794;2022-07-29T04:01:18;3.83;;;3.40;;
60867;SDS011;46702;48.370;10.794;2022-07-29T04:03:45;3.95;;;3.17;;
60867;SDS011;46702;48.370;10.794;2022-07-29T04:06:10;3.75;;;3.30;;
60867;SDS011;46702;48.370;10.794;2022-07-29T04:08:37;4.53;;;3.35;;
60867;SDS011;46702;48.370;10.794;2022-07-29T04:11:03;6.80;;;3.30;;
60867;SDS011;46702;48.370;10.794;2022-07-29T04:13:30;3.50;;;3.20;;
60867;SDS011;46702;48.370;10.794;2022-07-29T04:15:56;4.93;;;3.15;;
60867;SDS011;46702;48.370;10.794;2022-07-29T04:18:22;4.20;;;3.80;;
60867;SDS011;46702;48.370;10.794;2022-07-29T04:20:48;4.50;;;2.92;;
60867;SDS011;46702;48.370;10.794;2022-07-29T04:23:13;54.40;;;4.78;;
60867;SDS011;46702;48.370;10.794;2022-07-29T04:25:39;4.40;;;3.15;;
60867;SDS011;46702;48.370;10.794;2022-07-29T04:28:06;5.03;;;3.92;;
60867;SDS011;46702;48.370;10.794;2022-07-29T04:30:33;4.90;;;3.55;;
60867;SDS011;46702;48.370;10.794;2022-07-29T04:33:00;6.17;;;3.97;;
60867;SDS011;46702;48.370;10.794;2022-07-29T04:35:27;5.78;;;4.30;;
60867;SDS011;46702;48.370;10.794;2022-07-29T04:37:54;4.65;;;3.50;;
60867;SDS011;46702;48.370;10.794;2022-07-29T04:40:20;4.00;;;3.60;;
60867;SDS011;46702;48.370;10.794;2022-07-29T04:42:45;3.63;;;3.33;;
60867;SDS011;46702;48.370;10.794;2022-07-29T04:45:11;6.32;;;3.47;;
60867;SDS011;46702;48.370;10.794;2022-07-29T04:47:36;4.68;;;3.53;;
60867;SDS011;46702;48.370;10.794;2022-07-29T04:50:02;6.10;;;3.08;;
60867;SDS011;46702;48.370;10.794;2022-07-29T04:52:30;4.85;;;3.70;;
60867;SDS011;46702;48.370;10.794;2022-07-29T04:54:55;4.43;;;3.60;;
60867;SDS011;46702;48.370;10.794;2022-07-29T04:57:21;5.65;;;4.15;;
60867;SDS011;46702;48.370;10.794;2022-07-29T04:59:47;5.43;;;3.95;;
60867;SDS011;46702;48.370;10.794;2022-07-29T05:02:13;4.70;;;4.20;;
60867;SDS011;46702;48.370;10.794;2022-07-29T05:04:39;6.32;;;4.53;;
60867;SDS011;46702;48.370;10.794;2022-07-29T05:07:04;4.40;;;4.00;;
60867;SDS011;46702;48.370;10.794;2022-07-29T05:09:30;6.43;;;4.15;;
60867;SDS011;46702;48.370;10.794;2022-07-29T05:11:57;5.15;;;4.55;;
60867;SDS011;46702;48.370;10.794;2022-07-29T05:14:22;4.90;;;4.03;;
60867;SDS011;46702;48.370;10.794;2022-07-29T05:16:48;6.15;;;4.20;;
60867;SDS011;46702;48.370;10.794;2022-07-29T05:19:16;10.87;;;4.73;;
60867;SDS011;46702;48.370;10.794;2022-07-29T05:21:41;6.07;;;5.00;;
60867;SDS011;46702;48.370;10.794;2022-07-29T05:24:07;7.20;;;4.00;;
60867;SDS011;46702;48.370;10.794;2022-07-29T05:26:33;6.07;;;4.10;;
60867;SDS011;46702;48.370;10.794;2022-07-29T05:28:58;5.07;;;3.90;;
60867;SDS011;46702;48.370;10.794;2022-07-29T05:31:24;4.72;;;3.92;;
60867;SDS011;46702;48.370;10.794;2022-07-29T05:33:49;6.70;;;3.90;;
60867;SDS011;46702;48.370;10.794;2022-07-29T05:36:15;5.25;;;4.15;;
60867;SDS011;46702;48.370;10.794;2022-07-29T05:38:41;8.25;;;4.68;;
60867;SDS011;46702;48.370;10.794;2022-07-29T05:41:06;9.95;;;4.20;;
60867;SDS011;46702;48.370;10.794;2022-07-29T05:43:32;5.47;;;4.20;;
60867;SDS011;46702;48.370;10.794;2022-07-29T05:45:57;5.68;;;4.60;;
60867;SDS011;46702;48.370;10.794;2022-07-29T05:48:23;4.65;;;3.50;;
60867;SDS011;46702;48.370;10.794;2022-07-29T05:50:49;4.93;;;3.28;;
60867;SDS011;46702;48.370;10.794;2022-07-29T05:53:14;3.67;;;3.00;;
60867;SDS011;46702;48.370;10.794;2022-07-29T05:55:41;8.70;;;3.10;;
60867;SDS011;46702;48.370;10.794;2022-07-29T05:58:06;5.00;;;2.50;;
60867;SDS011;46702;48.370;10.794;2022-07-29T06:00:32;2.88;;;2.22;;
60867;SDS011;46702;48.370;10.794;2022-07-29T06:02:57;4.18;;;2.42;;
60867;SDS011;46702;48.370;10.794;2022-07-29T06:05:23;4.90;;;2.38;;
60867;SDS011;46702;48.370;10.794;2022-07-29T06:07:49;5.57;;;3.08;;
60867;SDS011;46702;48.370;10.794;2022-07-29T06:10:14;5.32;;;2.40;;
60867;SDS011;46702;48.370;10.794;2022-07-29T06:12:40;4.63;;;2.95;;
60867;SDS011;46702;48.370;10.794;2022-07-29T06:15:05;6.78;;;3.35;;
60867;SDS011;46702;48.370;10.794;2022-07-29T06:17:31;3.70;;;2.55;;
60867;SDS011;46702;48.370;10.794;2022-07-29T06:19:57;3.65;;;2.72;;
60867;SDS011;46702;48.370;10.794;2022-07-29T06:22:23;3.95;;;3.55;;
60867;SDS011;46702;48.370;10.794;2022-07-29T06:24:48;4.45;;;2.92;;
60867;SDS011;46702;48.370;10.794;2022-07-29T06:27:14;5.85;;;2.85;;
60867;SDS011;46702;48.370;10.794;2022-07-29T06:29:41;5.15;;;2.75;;
60867;SDS011;46702;48.370;10.794;2022-07-29T06:32:07;7.30;;;3.15;;
60867;SDS011;46702;48.370;10.794;2022-07-29T06:34:34;4.13;;;3.20;;
60867;SDS011;46702;48.370;10.794;2022-07-29T06:37:00;4.28;;;2.80;;
60867;SDS011;46702;48.370;10.794;2022-07-29T06:39:30;4.18;;;3.08;;
60867;SDS011;46702;48.370;10.794;2022-07-29T06:41:55;5.25;;;3.20;;
60867;SDS011;46702;48.370;10.794;2022-07-29T06:44:21;3.08;;;2.83;;
60867;SDS011;46702;48.370;10.794;2022-07-29T06:46:47;6.82;;;3.35;;
60867;SDS011;46702;48.370;10.794;2022-07-29T06:51:40;4.70;;;3.55;;
60867;SDS011;46702;48.370;10.794;2022-07-29T06:54:06;4.13;;;3.40;;
60867;SDS011;46702;48.370;10.794;2022-07-29T06:56:32;4.20;;;3.40;;
60867;SDS011;46702;48.370;10.794;2022-07-29T06:58:58;7.15;;;3.55;;
60867;SDS011;46702;48.370;10.794;2022-07-29T07:01:24;4.65;;;3.47;;
60867;SDS011;46702;48.370;10.794;2022-07-29T07:03:49;7.63;;;4.32;;
60867;SDS011;46702;48.370;10.794;2022-07-29T07:06:15;4.55;;;3.42;;
60867;SDS011;46702;48.370;10.794;2022-07-29T07:08:41;4.45;;;3.10;;
60867;SDS011;46702;48.370;10.794;2022-07-29T07:11:07;5.38;;;3.33;;
60867;SDS011;46702;48.370;10.794;2022-07-29T07:13:33;4.03;;;3.13;;
60867;SDS011;46702;48.370;10.794;2022-07-29T07:15:59;5.40;;;3.40;;
60867;SDS011;46702;48.370;10.794;2022-07-29T07:18:26;4.30;;;3.25;;
60867;SDS011;46702;48.370;10.794;2022-07-29T07:20:52;4.22;;;3.33;;
60867;SDS011;46702;48.370;10.794;2022-07-29T07:23:18;4.13;;;3.10;;
60867;SDS011;46702;48.370;10.794;2022-07-29T07:25:43;7.53;;;3.40;;
60867;SDS011;46702;48.370;10.794;2022-07-29T07:28:10;4.00;;;3.05;;
60867;SDS011;46702;48.370;10.794;2022-07-29T07:30:35;3.40;;;2.70;;
60867;SDS011;46702;48.370;10.794;2022-07-29T07:33:01;3.75;;;2.97;;
60867;SDS011;46702;48.370;10.794;2022-07-29T07:35:27;2.85;;;2.40;;
60867;SDS011;46702;48.370;10.794;2022-07-29T07:37:54;4.82;;;2.80;;
60867;SDS011;46702;48.370;10.794;2022-07-29T07:40:20;2.95;;;2.65;;
60867;SDS011;46702;48.370;10.794;2022-07-29T07:42:45;2.67;;;2.38;;
60867;SDS011;46702;48.370;10.794;2022-07-29T07:45:11;2.80;;;2.60;;
60867;SDS011;46702;48.370;10.794;2022-07-29T07:47:37;4.88;;;3.00;;
60867;SDS011;46702;48.370;10.794;2022-07-29T07:50:04;3.60;;;2.70;;
60867;SDS011;46702;48.370;10.794;2022-07-29T07:52:31;3.88;;;2.42;;
60867;SDS011;46702;48.370;10.794;2022-07-29T07:54:57;2.97;;;2.65;;
60867;SDS011;46702;48.370;10.794;2022-07-29T07:57:22;3.25;;;2.65;;
60867;SDS011;46702;48.370;10.794;2022-07-29T07:59:48;4.22;;;3.08;;
60867;SDS011;46702;48.370;10.794;2022-07-29T08:02:14;6.65;;;3.03;;
60867;SDS011;46702;48.370;10.794;2022-07-29T08:04:39;4.05;;;2.90;;
60867;SDS011;46702;48.370;10.794;2022-07-29T08:07:06;5.03;;;3.28;;
60867;SDS011;46702;48.370;10.794;2022-07-29T08:09:33;3.17;;;2.70;;
60867;SDS011;46702;48.370;10.794;2022-07-29T08:11:59;3.85;;;2.95;;
60867;SDS011;46702;48.370;10.794;2022-07-29T08:16:52;3.42;;;2.90;;
60867;SDS011;46702;48.370;10.794;2022-07-29T08:19:18;3.15;;;2.85;;
60867;SDS011;46702;48.370;10.794;2022-07-29T08:21:44;4.97;;;2.90;;
60867;SDS011;46702;48.370;10.794;2022-07-29T08:24:10;4.28;;;3.05;;
60867;SDS011;46702;48.370;10.794;2022-07-29T08:26:54;3.22;;;2.92;;
60867;SDS011;46702;48.370;10.794;2022-07-29T08:29:20;3.42;;;2.88;;
60867;SDS011;46702;48.370;10.794;2022-07-29T08:31:45;3.38;;;2.72;;
60867;SDS011;46702;48.370;10.794;2022-07-29T08:34:11;3.40;;;3.10;;
60867;SDS011;46702;48.370;10.794;2022-07-29T08:36:37;3.55;;;3.20;;
60867;SDS011;46702;48.370;10.794;2022-07-29T08:39:03;3.83;;;2.72;;
60867;SDS011;46702;48.370;10.794;2022-07-29T08:41:29;3.75;;;3.15;;
60867;SDS011;46702;48.370;10.794;2022-07-29T08:43:55;3.55;;;2.92;;
60867;SDS011;46702;48.370;10.794;2022-07-29T08:46:22;3.25;;;2.75;;
60867;SDS011;46702;48.370;10.794;2022-07-29T08:48:48;3.30;;;2.73;;
60867;SDS011;46702;48.370;10.794;2022-07-29T08:51:14;3.15;;;2.47;;
60867;SDS011;46702;48.370;10.794;2022-07-29T08:56:10;4.07;;;3.20;;
60867;SDS011;46702;48.370;10.794;2022-07-29T08:58:37;3.83;;;2.70;;
60867;SDS011;46702;48.370;10.794;2022-07-29T09:01:03;3.35;;;2.58;;
60867;SDS011;46702;48.370;10.794;2022-07-29T09:03:30;3.83;;;3.42;;
60867;SDS011;46702;48.370;10.794;2022-07-29T09:05:56;3.33;;;3.00;;
60867;SDS011;46702;48.370;10.794;2022-07-29T09:08:23;4.07;;;3.20;;
60867;SDS011;46702;48.370;10.794;2022-07-29T09:10:50;4.38;;;3.00;;
60867;SDS011;46702;48.370;10.794;2022-07-29T09:13:16;3.40;;;3.08;;
60867;SDS011;46702;48.370;10.794;2022-07-29T09:15:42;6.35;;;3.05;;
60867;SDS011;46702;48.370;10.794;2022-07-29T09:18:07;4.60;;;3.25;;
60867;SDS011;46702;48.370;10.794;2022-07-29T09:20:33;3.42;;;2.55;;
60867;SDS011;46702;48.370;10.794;2022-07-29T09:23:28;3.10;;;2.80;;
60867;SDS011;46702;48.370;10.794;2022-07-29T09:25:54;4.05;;;2.55;;
60867;SDS011;46702;48.370;10.794;2022-07-29T09:28:19;3.55;;;3.25;;
60867;SDS011;46702;48.370;10.794;2022-07-29T09:33:21;4.38;;;2.78;;
60867;SDS011;46702;48.370;10.794;2022-07-29T09:38:30;3.20;;;2.58;;
60867;SDS011;46702;48.370;10.794;2022-07-29T09:41:00;3.20;;;2.47;;
60867;SDS011;46702;48.370;10.794;2022-07-29T09:43:27;2.30;;;2.10;;
60867;SDS011;46702;48.370;10.794;2022-07-29T09:45:53;4.68;;;2.75;;
60867;SDS011;46702;48.370;10.794;2022-07-29T09:48:20;2.58;;;2.20;;
60867;SDS011;46702;48.370;10.794;2022-07-29T09:50:48;3.33;;;2.58;;
60867;SDS011;46702;48.370;10.794;2022-07-29T09:56:02;3.47;;;3.15;;
60867;SDS011;46702;48.370;10.794;2022-07-29T09:58:29;3.00;;;2.70;;
60867;SDS011;46702;48.370;10.794;2022-07-29T10:00:54;3.25;;;2.90;;
60867;SDS011;46702;48.370;10.794;2022-07-29T10:03:21;4.47;;;2.95;;
60867;SDS011;46702;48.370;10.794;2022-07-29T10:06:03;2.60;;;2.40;;
60867;SDS011;46702;48.370;10.794;2022-07-29T10:08:29;3.08;;;2.60;;
60867;SDS011;46702;48.370;10.794;2022-07-29T10:11:08;3.40;;;2.47;;
60867;SDS011;46702;48.370;10.794;2022-07-29T10:13:45;3.00;;;2.80;;
60867;SDS011;46702;48.370;10.794;2022-07-29T10:16:13;3.90;;;3.05;;
60867;SDS011;46702;48.370;10.794;2022-07-29T10:18:41;3.00;;;2.80;;
60867;SDS011;46702;48.370;10.794;2022-07-29T10:21:07;4.40;;;3.25;;
60867;SDS011;46702;48.370;10.794;2022-07-29T10:23:34;3.40;;;3.10;;
60867;SDS011;46702;48.370;10.794;2022-07-29T10:26:01;4.45;;;3.38;;
60867;SDS011;46702;48.370;10.794;2022-07-29T10:28:29;5.40;;;3.53;;
60867;SDS011;46702;48.370;10.794;2022-07-29T10:31:02;3.40;;;3.10;;
60867;SDS011;46702;48.370;10.794;2022-07-29T10:42:11;4.38;;;3.50;;
60867;SDS011;46702;48.370;10.794;2022-07-29T10:44:51;4.60;;;3.97;;
60867;SDS011;46702;48.370;10.794;2022-07-29T10:47:21;6.82;;;3.17;;
60867;SDS011;46702;48.370;10.794;2022-07-29T10:49:55;5.43;;;3.75;;
60867;SDS011;46702;48.370;10.794;2022-07-29T10:52:24;4.80;;;4.00;;
60867;SDS011;46702;48.370;10.794;2022-07-29T10:55:25;5.00;;;3.60;;
60867;SDS011;46702;48.370;10.794;2022-07-29T10:58:40;5.35;;;3.58;;
60867;SDS011;46702;48.370;10.794;2022-07-29T11:01:00;4.55;;;3.30;;
60867;SDS011;46702;48.370;10.794;2022-07-29T11:03:54;4.40;;;3.45;;
60867;SDS011;46702;48.370;10.794;2022-07-29T11:06:21;5.00;;;3.10;;
60867;SDS011;46702;48.370;10.794;2022-07-29T11:08:47;3.97;;;2.97;;
60867;SDS011;46702;48.370;10.794;2022-07-29T11:11:45;4.47;;;3.40;;
60867;SDS011;46702;48.370;10.794;2022-07-29T11:14:11;3.97;;;3.28;;
60867;SDS011;46702;48.370;10.794;2022-07-29T11:19:29;4.20;;;3.42;;
60867;SDS011;46702;48.370;10.794;2022-07-29T11:21:55;3.50;;;3.00;;
60867;SDS011;46702;48.370;10.794;2022-07-29T11:24:22;3.03;;;2.83;;
60867;SDS011;46702;48.370;10.794;2022-07-29T11:27:09;4.03;;;2.90;;
60867;SDS011;46702;48.370;10.794;2022-07-29T11:29:40;2.80;;;2.60;;
60867;SDS011;46702;48.370;10.794;2022-07-29T11:32:17;3.15;;;2.42;;
60867;SDS011;46702;48.370;10.794;2022-07-29T11:34:45;2.97;;;2.42;;
60867;SDS011;46702;48.370;10.794;2022-07-29T11:47:23;3.17;;;2.45;;
60867;SDS011;46702;48.370;10.794;2022-07-29T11:49:51;5.18;;;2.67;;
60867;SDS011;46702;48.370;10.794;2022-07-29T11:52:17;2.70;;;2.47;;
60867;SDS011;46702;48.370;10.794;2022-07-29T11:54:44;3.80;;;2.80;;
60867;SDS011;46702;48.370;10.794;2022-07-29T11:57:13;3.05;;;2.75;;
60867;SDS011;46702;48.370;10.794;2022-07-29T11:59:43;5.50;;;2.70;;
60867;SDS011;46702;48.370;10.794;2022-07-29T12:02:11;3.22;;;2.70;;
60867;SDS011;46702;48.370;10.794;2022-07-29T12:04:50;5.43;;;2.92;;
60867;SDS011;46702;48.370;10.794;2022-07-29T12:07:16;3.85;;;2.60;;
60867;SDS011;46702;48.370;10.794;2022-07-29T12:09:52;3.67;;;2.45;;
60867;SDS011;46702;48.370;10.794;2022-07-29T12:12:18;3.85;;;2.60;;
60867;SDS011;46702;48.370;10.794;2022-07-29T12:14:44;2.63;;;2.40;;
60867;SDS011;46702;48.370;10.794;2022-07-29T12:17:29;4.43;;;2.85;;
60867;SDS011;46702;48.370;10.794;2022-07-29T12:19:56;2.63;;;2.42;;
60867;SDS011;46702;48.370;10.794;2022-07-29T12:22:27;2.50;;;2.30;;
60867;SDS011;46702;48.370;10.794;2022-07-29T12:25:00;2.65;;;2.45;;
60867;SDS011;46702;48.370;10.794;2022-07-29T12:27:27;3.83;;;2.53;;
60867;SDS011;46702;48.370;10.794;2022-07-29T12:30:12;3.33;;;2.50;;
60867;SDS011;46702;48.370;10.794;2022-07-29T12:32:42;4.13;;;2.42;;
60867;SDS011;46702;48.370;10.794;2022-07-29T12:35:10;3.05;;;2.20;;
60867;SDS011;46702;48.370;10.794;2022-07-29T12:37:37;2.60;;;2.40;;
60867;SDS011;46702;48.370;10.794;2022-07-29T12:40:05;3.50;;;3.22;;
60867;SDS011;46702;48.370;10.794;2022-07-29T12:42:32;2.50;;;2.30;;
60867;SDS011;46702;48.370;10.794;2022-07-29T12:44:58;2.63;;;2.42;;
60867;SDS011;46702;48.370;10.794;2022-07-29T12:47:23;2.47;;;2.28;;
60867;SDS011;46702;48.370;10.794;2022-07-29T12:49:50;2.38;;;2.17;;
60867;SDS011;46702;48.370;10.794;2022-07-29T12:52:26;3.13;;;2.15;;
60867;SDS011;46702;48.370;10.794;2022-07-29T12:54:56;5.20;;;2.90;;
60867;SDS011;46702;48.370;10.794;2022-07-29T12:57:22;2.47;;;2.28;;
60867;SDS011;46702;48.370;10.794;2022-07-29T13:02:54;2.60;;;2.10;;
60867;SDS011;46702;48.370;10.794;2022-07-29T13:05:23;2.65;;;2.20;;
60867;SDS011;46702;48.370;10.794;2022-07-29T13:08:09;3.00;;;2.30;;
60867;SDS011;46702;48.370;10.794;2022-07-29T13:10:39;3.05;;;2.13;;
60867;SDS011;46702;48.370;10.794;2022-07-29T13:15:31;2.30;;;2.10;;
60867;SDS011;46702;48.370;10.794;2022-07-29T13:17:58;3.28;;;2.20;;
60867;SDS011;46702;48.370;10.794;2022-07-29T13:20:25;3.90;;;2.03;;
60867;SDS011;46702;48.370;10.794;2022-07-29T13:22:56;2.05;;;1.80;;
60867;SDS011;46702;48.370;10.794;2022-07-29T13:25:26;2.05;;;1.85;;
60867;SDS011;46702;48.370;10.794;2022-07-29T13:27:57;2.30;;;2.10;;
60867;SDS011;46702;48.370;10.794;2022-07-29T13:30:24;2.00;;;1.90;;
60867;SDS011;46702;48.370;10.794;2022-07-29T13:32:51;3.13;;;2.10;;
60867;SDS011;46702;48.370;10.794;2022-07-29T13:35:18;3.22;;;2.20;;
60867;SDS011;46702;48.370;10.794;2022-07-29T13:37:44;4.88;;;2.30;;
60867;SDS011;46702;48.370;10.794;2022-07-29T13:40:10;5.65;;;2.17;;
60867;SDS011;46702;48.370;10.794;2022-07-29T13:42:36;2.83;;;1.98;;
60867;SDS011;46702;48.370;10.794;2022-07-29T13:45:03;2.88;;;2.35;;
60867;SDS011;46702;48.370;10.794;2022-07-29T13:47:29;2.53;;;2.22;;
60867;SDS011;46702;48.370;10.794;2022-07-29T13:49:55;3.20;;;2.10;;
60867;SDS011;46702;48.370;10.794;2022-07-29T13:52:21;2.80;;;2.60;;
60867;SDS011;46702;48.370;10.794;2022-07-29T13:54:47;3.10;;;2.20;;
60867;SDS011;46702;48.370;10.794;2022-07-29T13:57:13;1.90;;;1.80;;
60867;SDS011;46702;48.370;10.794;2022-07-29T13:59:39;2.47;;;2.28;;
60867;SDS011;46702;48.370;10.794;2022-07-29T14:02:06;2.60;;;2.40;;
60867;SDS011;46702;48.370;10.794;2022-07-29T14:04:33;2.40;;;2.10;;
60867;SDS011;46702;48.370;10.794;2022-07-29T14:06:59;3.05;;;2.30;;
60867;SDS011;46702;48.370;10.794;2022-07-29T14:09:25;2.95;;;2.30;;
60867;SDS011;46702;48.370;10.794;2022-07-29T14:11:50;2.33;;;1.90;;
60867;SDS011;46702;48.370;10.794;2022-07-29T14:14:17;2.47;;;2.13;;
60867;SDS011;46702;48.370;10.794;2022-07-29T14:16:43;3.20;;;2.28;;
60867;SDS011;46702;48.370;10.794;2022-07-29T14:19:09;10.93;;;4.75;;
60867;SDS011;46702;48.370;10.794;2022-07-29T14:21:36;2.72;;;2.38;;
60867;SDS011;46702;48.370;10.794;2022-07-29T14:24:02;2.47;;;2.22;;
60867;SDS011;46702;48.370;10.794;2022-07-29T14:26:28;2.95;;;2.10;;
60867;SDS011;46702;48.370;10.794;2022-07-29T14:28:53;2.30;;;2.10;;
60867;SDS011;46702;48.370;10.794;2022-07-29T14:31:19;2.58;;;2.20;;
60867;SDS011;46702;48.370;10.794;2022-07-29T14:33:45;3.45;;;2.60;;
60867;SDS011;46702;48.370;10.794;2022-07-29T14:36:10;3.25;;;2.20;;
60867;SDS011;46702;48.370;10.794;2022-07-29T14:38:36;4.65;;;2.25;;
60867;SDS011;46702;48.370;10.794;2022-07-29T14:41:05;2.63;;;2.42;;
60867;SDS011;46702;48.370;10.794;2022-07-29T14:43:32;2.90;;;2.20;;
60867;SDS011;46702;48.370;10.794;2022-07-29T14:45:59;2.33;;;2.13;;
60867;SDS011;46702;48.370;10.794;2022-07-29T14:48:25;2.17;;;1.98;;
60867;SDS011;46702;48.370;10.794;2022-07-29T14:50:51;2.75;;;2.15;;
60867;SDS011;46702;48.370;10.794;2022-07-29T14:53:16;2.85;;;2.42;;
60867;SDS011;46702;48.370;10.794;2022-07-29T14:55:42;2.58;;;2.20;;
60867;SDS011;46702;48.370;10.794;2022-07-29T14:58:09;2.92;;;2.63;;
60867;SDS011;46702;48.370;10.794;2022-07-29T15:00:35;3.75;;;2.65;;
60867;SDS011;46702;48.370;10.794;2022-07-29T15:03:02;3.40;;;2.47;;
60867;SDS011;46702;48.370;10.794;2022-07-29T15:05:29;3.00;;;2.43;;
60867;SDS011;46702;48.370;10.794;2022-07-29T15:07:55;3.33;;;2.80;;
60867;SDS011;46702;48.370;10.794;2022-07-29T15:10:21;2.72;;;2.50;;
60867;SDS011;46702;48.370;10.794;2022-07-29T15:12:46;3.70;;;2.72;;
60867;SDS011;46702;48.370;10.794;2022-07-29T15:15:12;3.72;;;2.70;;
60867;SDS011;46702;48.370;10.794;2022-07-29T15:17:37;3.70;;;2.85;;
60867;SDS011;46702;48.370;10.794;2022-07-29T15:20:03;3.28;;;3.00;;
60867;SDS011;46702;48.370;10.794;2022-07-29T15:22:29;3.05;;;2.67;;
60867;SDS011;46702;48.370;10.794;2022-07-29T15:24:55;2.97;;;2.65;;
60867;SDS011;46702;48.370;10.794;2022-07-29T15:27:21;3.42;;;2.65;;
60867;SDS011;46702;48.370;10.794;2022-07-29T15:29:46;4.80;;;2.53;;
60867;SDS011;46702;48.370;10.794;2022-07-29T15:32:12;5.85;;;2.55;;